createdAt,value
2018-02-20T00:01:44.071Z,0.20
2018-02-20T00:04:11.642Z,0.20
2018-02-20T00:06:40.067Z,0.20
2018-02-20T00:09:07.614Z,0.20
2018-02-20T00:11:35.212Z,0.20
2018-02-20T00:14:02.767Z,0.20
2018-02-20T00:16:30.342Z,0.20
2018-02-20T00:18:57.942Z,0.20
2018-02-20T00:21:25.498Z,0.10
2018-02-20T00:23:53.082Z,0.20
2018-02-20T00:26:20.652Z,0.20
2018-02-20T00:31:22.245Z,0.30
2018-02-20T00:33:49.867Z,0.20
2018-02-20T00:36:17.431Z,0.20
2018-02-20T00:38:45.043Z,0.20
2018-02-20T00:41:13.555Z,0.30
2018-02-20T00:43:41.255Z,0.30
2018-02-20T00:46:08.904Z,0.30
2018-02-20T00:48:36.451Z,0.30
2018-02-20T00:51:04.051Z,0.20
2018-02-20T00:53:32.394Z,0.30
2018-02-20T00:55:59.986Z,0.30
2018-02-20T00:58:28.303Z,0.20
2018-02-20T01:00:55.895Z,0.20
2018-02-20T01:03:23.480Z,0.20
2018-02-20T01:05:51.835Z,0.20
2018-02-20T01:08:20.164Z,0.20
2018-02-20T01:10:47.780Z,0.20
2018-02-20T01:13:15.331Z,0.20
2018-02-20T01:15:42.931Z,0.20
2018-02-20T01:18:10.482Z,0.20
2018-02-20T01:20:38.043Z,0.20
2018-02-20T01:23:05.735Z,0.20
2018-02-20T01:25:33.316Z,0.20
2018-02-20T01:28:00.898Z,0.20
2018-02-20T01:30:29.339Z,0.20
2018-02-20T01:32:56.927Z,0.20
2018-02-20T01:35:24.475Z,0.20
2018-02-20T01:37:52.075Z,0.20
2018-02-20T01:40:19.826Z,0.20
2018-02-20T01:42:48.234Z,0.20
2018-02-20T01:45:15.827Z,0.20
2018-02-20T01:47:43.378Z,0.10
2018-02-20T01:50:10.976Z,0.10
2018-02-20T01:52:39.512Z,0.20
2018-02-20T01:55:07.104Z,0.20
2018-02-20T01:57:34.690Z,0.20
2018-02-20T02:00:02.406Z,0.20
2018-02-20T02:02:29.966Z,0.10
2018-02-20T02:04:57.526Z,0.10
2018-02-20T02:07:25.121Z,0.10
2018-02-20T02:09:53.467Z,0.10
2018-02-20T02:12:21.070Z,0.10
2018-02-20T02:14:48.625Z,0.10
2018-02-20T02:17:16.286Z,0.10
2018-02-20T02:19:43.895Z,0.00
2018-02-20T02:22:11.454Z,0.00
2018-02-20T02:24:39.050Z,0.00
2018-02-20T02:27:07.391Z,-0.10
2018-02-20T02:29:35.103Z,-0.10
2018-02-20T02:32:02.682Z,0.00
2018-02-20T02:34:30.291Z,-0.10
2018-02-20T02:36:57.850Z,0.00
2018-02-20T02:39:26.191Z,0.00
2018-02-20T02:41:53.935Z,0.00
2018-02-20T02:44:21.498Z,0.00
2018-02-20T02:46:49.149Z,0.10
2018-02-20T02:49:16.719Z,0.00
2018-02-20T02:51:44.403Z,0.10
2018-02-20T02:54:11.958Z,0.10
2018-02-20T02:56:39.519Z,0.10
2018-02-20T02:59:07.103Z,0.10
2018-02-20T03:01:35.575Z,0.10
2018-02-20T03:04:03.178Z,0.10
2018-02-20T03:06:30.736Z,0.10
2018-02-20T03:08:58.326Z,0.10
2018-02-20T03:11:25.883Z,0.10
2018-02-20T03:13:53.474Z,0.10
2018-02-20T03:16:21.020Z,0.00
2018-02-20T03:18:48.775Z,0.00
2018-02-20T03:21:16.335Z,0.00
2018-02-20T03:23:43.903Z,0.10
2018-02-20T03:26:11.495Z,0.10
2018-02-20T03:28:39.066Z,-0.10
2018-02-20T03:31:06.655Z,-0.10
2018-02-20T03:33:34.211Z,0.00
2018-02-20T03:36:01.797Z,0.10
2018-02-20T03:38:29.337Z,0.00
2018-02-20T03:40:57.018Z,0.10
2018-02-20T03:43:25.356Z,-0.10
2018-02-20T03:45:52.942Z,-0.10
2018-02-20T03:48:20.523Z,-0.10
2018-02-20T03:50:48.838Z,0.00
2018-02-20T03:53:16.427Z,0.00
2018-02-20T03:55:43.992Z,-0.10
2018-02-20T03:58:11.707Z,0.00
2018-02-20T04:00:39.326Z,-0.10
2018-02-20T04:03:06.914Z,-0.10
2018-02-20T04:05:34.478Z,-0.10
2018-02-20T04:08:02.083Z,-0.10
2018-02-20T04:10:29.643Z,-0.10
2018-02-20T04:12:57.207Z,-0.10
2018-02-20T04:15:24.804Z,-0.10
2018-02-20T04:17:52.360Z,0.00
2018-02-20T04:20:20.850Z,-0.20
2018-02-20T04:22:48.406Z,-0.20
2018-02-20T04:25:16.019Z,-0.20
2018-02-20T04:27:43.631Z,-0.20
2018-02-20T04:30:11.231Z,-0.20
2018-02-20T04:32:38.850Z,-0.10
2018-02-20T04:35:06.413Z,-0.10
2018-02-20T04:37:34.019Z,0.00
2018-02-20T04:40:02.354Z,-0.10
2018-02-20T04:42:30.088Z,-0.10
2018-02-20T04:44:58.434Z,-0.10
2018-02-20T04:47:26.027Z,-0.10
2018-02-20T04:49:54.350Z,-0.10
2018-02-20T04:52:21.943Z,-0.20
2018-02-20T04:54:50.306Z,-0.10
2018-02-20T04:57:19.367Z,0.00
2018-02-20T04:59:46.950Z,0.00
2018-02-20T05:02:14.522Z,0.00
2018-02-20T05:04:42.108Z,0.00
2018-02-20T05:07:10.432Z,0.00
2018-02-20T05:09:38.019Z,0.00
2018-02-20T05:12:05.582Z,-0.10
2018-02-20T05:14:33.314Z,-0.10
2018-02-20T05:17:00.873Z,-0.10
2018-02-20T05:19:28.433Z,-0.10
2018-02-20T05:21:56.181Z,-0.10
2018-02-20T05:24:23.786Z,0.00
2018-02-20T05:26:52.176Z,0.00
2018-02-20T05:29:20.520Z,-0.10
2018-02-20T05:31:49.719Z,-0.10
2018-02-20T05:34:17.282Z,-0.10
2018-02-20T05:36:44.843Z,0.00
2018-02-20T05:39:12.419Z,0.00
2018-02-20T05:41:40.745Z,0.00
2018-02-20T05:44:08.348Z,0.00
2018-02-20T05:46:36.970Z,0.00
2018-02-20T05:49:04.570Z,0.00
2018-02-20T05:51:32.165Z,0.00
2018-02-20T05:54:00.527Z,0.00
2018-02-20T05:56:28.954Z,-0.10
2018-02-20T05:58:56.564Z,-0.10
2018-02-20T06:01:24.890Z,0.00
2018-02-20T06:03:52.546Z,0.00
2018-02-20T06:06:20.848Z,0.00
2018-02-20T06:08:48.422Z,-0.10
2018-02-20T06:11:16.034Z,0.00
2018-02-20T06:13:43.602Z,0.00
2018-02-20T06:16:11.211Z,-0.10
2018-02-20T06:18:39.562Z,0.00
2018-02-20T06:21:07.926Z,0.00
2018-02-20T06:23:35.602Z,0.00
2018-02-20T06:26:03.946Z,0.00
2018-02-20T06:28:31.506Z,0.00
2018-02-20T06:30:59.064Z,0.00
2018-02-20T06:33:26.715Z,0.00
2018-02-20T06:35:54.307Z,0.00
2018-02-20T06:38:21.889Z,0.10
2018-02-20T06:40:49.474Z,0.10
2018-02-20T06:43:17.062Z,0.10
2018-02-20T06:45:44.916Z,0.10
2018-02-20T06:48:12.615Z,0.00
2018-02-20T06:50:40.298Z,0.10
2018-02-20T06:53:07.846Z,0.10
2018-02-20T06:55:35.538Z,0.20
2018-02-20T06:58:03.130Z,0.20
2018-02-20T07:00:30.749Z,0.20
2018-02-20T07:02:59.174Z,0.20
2018-02-20T07:05:26.839Z,0.20
2018-02-20T07:07:54.411Z,0.20
2018-02-20T07:10:22.027Z,0.30
2018-02-20T07:12:49.676Z,0.30
2018-02-20T07:15:17.311Z,0.40
2018-02-20T07:17:44.902Z,0.50
2018-02-20T07:20:12.459Z,0.60
2018-02-20T07:22:40.055Z,0.60
2018-02-20T07:25:07.617Z,0.60
2018-02-20T07:27:35.301Z,0.50
2018-02-20T07:30:02.883Z,0.60
2018-02-20T07:32:31.378Z,0.50
2018-02-20T07:34:58.952Z,0.50
2018-02-20T07:37:26.567Z,0.40
2018-02-20T07:39:55.047Z,0.40
2018-02-20T07:42:23.417Z,0.40
2018-02-20T07:44:51.783Z,0.40
2018-02-20T07:47:19.367Z,0.40
2018-02-20T07:49:47.736Z,0.60
2018-02-20T07:52:16.063Z,0.60
2018-02-20T07:54:43.623Z,0.60
2018-02-20T07:57:11.215Z,0.60
2018-02-20T07:59:38.790Z,0.60
2018-02-20T08:02:07.147Z,0.60
2018-02-20T08:04:34.710Z,0.50
2018-02-20T08:07:02.314Z,0.50
2018-02-20T08:09:29.914Z,0.50
2018-02-20T08:11:57.499Z,0.60
2018-02-20T08:14:25.852Z,0.50
2018-02-20T08:16:53.463Z,0.50
2018-02-20T08:19:21.056Z,0.50
2018-02-20T08:21:48.642Z,0.50
2018-02-20T08:24:16.354Z,0.50
2018-02-20T08:26:43.922Z,0.50
2018-02-20T08:29:11.516Z,0.60
2018-02-20T08:31:39.084Z,0.70
2018-02-20T08:34:06.695Z,0.70
2018-02-20T08:36:34.279Z,0.80
2018-02-20T08:39:01.847Z,0.70
2018-02-20T08:41:29.438Z,0.80
2018-02-20T08:43:57.766Z,0.90
2018-02-20T08:46:25.352Z,0.90
2018-02-20T08:48:52.914Z,1.00
2018-02-20T08:51:20.670Z,0.80
2018-02-20T08:53:48.230Z,0.80
2018-02-20T08:56:15.822Z,0.80
2018-02-20T08:58:43.382Z,0.80
2018-02-20T09:01:10.983Z,0.80
2018-02-20T09:03:38.529Z,0.90
2018-02-20T09:06:06.116Z,0.90
2018-02-20T09:08:33.711Z,0.90
2018-02-20T09:11:02.046Z,1.00
2018-02-20T09:13:29.643Z,0.90
2018-02-20T09:15:57.979Z,0.70
2018-02-20T09:18:25.582Z,0.70
2018-02-20T09:20:53.275Z,0.80
2018-02-20T09:23:20.883Z,0.90
2018-02-20T09:25:48.435Z,0.90
2018-02-20T09:28:16.047Z,0.80
2018-02-20T09:30:43.603Z,0.70
2018-02-20T09:33:11.211Z,0.70
2018-02-20T09:35:38.795Z,0.90
2018-02-20T09:38:07.122Z,0.80
2018-02-20T09:40:34.732Z,0.70
2018-02-20T09:43:03.062Z,0.70
2018-02-20T09:45:30.650Z,0.70
2018-02-20T09:47:59.045Z,0.80
2018-02-20T09:50:27.422Z,0.70
2018-02-20T09:52:54.986Z,0.70
2018-02-20T09:55:22.595Z,0.60
2018-02-20T09:57:50.186Z,0.70
2018-02-20T10:00:18.561Z,0.70
2018-02-20T10:02:46.936Z,0.80
2018-02-20T10:05:15.278Z,0.80
2018-02-20T10:07:42.866Z,0.80
2018-02-20T10:10:10.422Z,0.80
2018-02-20T10:12:38.019Z,0.70
2018-02-20T10:15:05.591Z,0.70
2018-02-20T10:17:33.232Z,0.80
2018-02-20T10:20:00.893Z,0.70
2018-02-20T10:22:28.423Z,0.60
2018-02-20T10:24:56.006Z,0.70
2018-02-20T10:27:23.575Z,0.70
2018-02-20T10:29:51.178Z,0.70
2018-02-20T10:32:18.731Z,0.70
2018-02-20T10:34:46.290Z,0.80
2018-02-20T10:37:13.882Z,1.00
2018-02-20T10:39:42.207Z,0.90
2018-02-20T10:42:09.913Z,0.90
2018-02-20T10:44:38.238Z,0.70
2018-02-20T10:47:05.840Z,0.70
2018-02-20T10:49:33.414Z,0.80
2018-02-20T10:52:01.824Z,1.10
2018-02-20T10:54:29.406Z,1.10
2018-02-20T10:56:56.992Z,1.00
2018-02-20T10:59:24.574Z,1.00
2018-02-20T11:01:52.967Z,1.20
2018-02-20T11:04:20.670Z,1.20
2018-02-20T11:06:48.233Z,1.30
2018-02-20T11:09:15.790Z,1.30
2018-02-20T11:11:43.411Z,1.30
2018-02-20T11:14:10.974Z,1.30
2018-02-20T11:16:38.571Z,1.40
2018-02-20T11:19:06.127Z,1.30
2018-02-20T11:21:33.722Z,1.40
2018-02-20T11:24:02.054Z,1.50
2018-02-20T11:26:29.644Z,1.50
2018-02-20T11:28:57.205Z,1.50
2018-02-20T11:31:24.807Z,1.50
2018-02-20T11:33:52.366Z,1.40
2018-02-20T11:36:19.931Z,1.30
2018-02-20T11:38:47.512Z,1.40
2018-02-20T11:41:15.100Z,1.40
2018-02-20T11:43:43.488Z,1.30
2018-02-20T11:46:11.825Z,1.30
2018-02-20T11:48:39.557Z,1.30
2018-02-20T11:51:07.111Z,1.40
2018-02-20T11:53:34.674Z,1.40
2018-02-20T11:56:02.275Z,1.40
2018-02-20T11:58:29.859Z,1.40
2018-02-20T12:00:58.359Z,1.40
2018-02-20T12:03:25.932Z,1.40
2018-02-20T12:05:53.523Z,1.60
2018-02-20T12:08:21.092Z,1.50
2018-02-20T12:10:48.674Z,1.60
2018-02-20T12:13:17.081Z,1.50
2018-02-20T12:15:44.763Z,1.50
2018-02-20T12:18:12.335Z,1.80
2018-02-20T12:20:39.979Z,1.80
2018-02-20T12:23:07.570Z,1.70
2018-02-20T12:25:35.210Z,1.50
2018-02-20T12:28:02.811Z,1.50
2018-02-20T12:30:31.163Z,1.50
2018-02-20T12:32:58.735Z,1.50
2018-02-20T12:35:27.084Z,1.50
2018-02-20T12:37:54.670Z,1.50
2018-02-20T12:40:23.010Z,1.60
2018-02-20T12:42:50.617Z,1.60
2018-02-20T12:45:19.201Z,1.70
2018-02-20T12:47:47.563Z,1.70
2018-02-20T12:50:15.157Z,1.70
2018-02-20T12:52:42.922Z,1.60
2018-02-20T12:55:10.520Z,1.50
2018-02-20T12:57:38.090Z,1.40
2018-02-20T13:00:07.166Z,1.30
2018-02-20T13:02:34.762Z,1.30
2018-02-20T13:05:03.146Z,1.20
2018-02-20T13:07:30.728Z,1.20
2018-02-20T13:09:58.310Z,1.30
2018-02-20T13:12:26.778Z,1.30
2018-02-20T13:14:54.491Z,1.30
2018-02-20T13:17:22.095Z,1.10
2018-02-20T13:19:49.680Z,1.20
2018-02-20T13:22:17.338Z,1.30
2018-02-20T13:24:44.950Z,1.40
2018-02-20T13:27:12.527Z,1.30
2018-02-20T13:29:40.109Z,1.40
2018-02-20T13:32:07.719Z,1.50
2018-02-20T13:34:36.214Z,1.30
2018-02-20T13:37:03.784Z,1.30
2018-02-20T13:39:31.408Z,1.30
2018-02-20T13:41:59.765Z,1.40
2018-02-20T13:44:27.334Z,1.40
2018-02-20T13:46:54.922Z,1.30
2018-02-20T13:49:23.252Z,1.50
2018-02-20T13:51:50.867Z,1.50
2018-02-20T13:54:18.579Z,1.50
2018-02-20T13:56:46.162Z,1.40
2018-02-20T13:59:13.790Z,1.40
2018-02-20T14:01:41.383Z,1.40
2018-02-20T14:04:09.771Z,1.40
2018-02-20T14:06:38.387Z,1.30
2018-02-20T14:09:06.002Z,1.30
2018-02-20T14:11:34.319Z,1.30
2018-02-20T14:14:01.908Z,1.30
2018-02-20T14:16:29.650Z,1.40
2018-02-20T14:18:57.242Z,1.40
2018-02-20T14:21:24.804Z,1.50
2018-02-20T14:23:52.424Z,1.40
2018-02-20T14:26:19.987Z,1.40
2018-02-20T14:28:47.583Z,1.40
2018-02-20T14:31:15.147Z,1.50
2018-02-20T14:33:43.571Z,1.40
2018-02-20T14:36:11.179Z,1.40
2018-02-20T14:38:38.780Z,1.40
2018-02-20T14:41:06.339Z,1.30
2018-02-20T14:43:33.962Z,1.40
2018-02-20T14:46:02.299Z,1.40
2018-02-20T14:48:29.926Z,1.40
2018-02-20T14:50:57.482Z,1.50
2018-02-20T14:53:25.087Z,1.40
2018-02-20T14:55:52.690Z,1.40
2018-02-20T14:58:21.021Z,1.50
2018-02-20T15:00:48.607Z,1.50
2018-02-20T15:03:16.324Z,1.50
2018-02-20T15:05:44.031Z,1.50
2018-02-20T15:08:12.363Z,1.50
2018-02-20T15:10:39.975Z,1.50
2018-02-20T15:13:08.309Z,1.60
2018-02-20T15:15:35.942Z,1.50
2018-02-20T15:18:03.515Z,1.60
2018-02-20T15:20:31.127Z,1.60
2018-02-20T15:22:59.491Z,1.40
2018-02-20T15:25:27.062Z,1.40
2018-02-20T15:27:55.446Z,1.30
2018-02-20T15:30:23.819Z,1.40
2018-02-20T15:32:52.183Z,1.40
2018-02-20T15:35:19.767Z,1.40
2018-02-20T15:37:48.126Z,1.40
2018-02-20T15:40:16.455Z,1.30
2018-02-20T15:42:44.035Z,1.30
2018-02-20T15:45:11.631Z,1.30
2018-02-20T15:47:39.951Z,1.40
2018-02-20T15:50:07.547Z,1.40
2018-02-20T15:52:35.132Z,1.40
2018-02-20T15:55:03.542Z,1.40
2018-02-20T15:57:31.107Z,1.40
2018-02-20T15:59:58.727Z,1.40
2018-02-20T16:02:27.102Z,1.30
2018-02-20T16:04:55.443Z,1.40
2018-02-20T16:07:24.554Z,1.30
2018-02-20T16:09:53.635Z,1.20
2018-02-20T16:12:22.135Z,1.30
2018-02-20T16:14:50.471Z,1.40
2018-02-20T16:17:18.088Z,1.30
2018-02-20T16:19:46.616Z,1.30
2018-02-20T16:22:14.247Z,1.30
2018-02-20T16:24:41.819Z,1.20
2018-02-20T16:27:09.386Z,1.30
2018-02-20T16:29:36.987Z,1.30
2018-02-20T16:32:05.400Z,1.30
2018-02-20T16:34:33.005Z,1.30
2018-02-20T16:37:00.591Z,1.30
2018-02-20T16:39:29.030Z,1.30
2018-02-20T16:41:56.759Z,1.30
2018-02-20T16:44:24.340Z,1.20
2018-02-20T16:46:51.935Z,1.30
2018-02-20T16:49:19.497Z,1.20
2018-02-20T16:51:47.078Z,1.10
2018-02-20T16:54:14.642Z,1.10
2018-02-20T16:56:42.244Z,1.00
2018-02-20T16:59:09.840Z,1.00
2018-02-20T17:01:38.210Z,1.00
2018-02-20T17:04:05.791Z,1.00
2018-02-20T17:06:33.495Z,1.00
2018-02-20T17:09:01.090Z,0.90
2018-02-20T17:11:28.659Z,1.00
2018-02-20T17:13:57.110Z,1.00
2018-02-20T17:16:25.555Z,1.00
2018-02-20T17:18:53.182Z,1.00
2018-02-20T17:21:21.723Z,0.90
2018-02-20T17:23:49.315Z,0.90
2018-02-20T17:26:17.644Z,0.90
2018-02-20T17:28:45.256Z,0.90
2018-02-20T17:31:13.581Z,0.80
2018-02-20T17:33:41.155Z,0.80
2018-02-20T17:36:08.750Z,0.70
2018-02-20T17:38:36.337Z,0.60
2018-02-20T17:41:03.970Z,0.60
2018-02-20T17:43:32.435Z,0.60
2018-02-20T17:46:00.789Z,0.60
2018-02-20T17:48:28.413Z,0.60
2018-02-20T17:50:56.035Z,0.60
2018-02-20T17:53:23.638Z,0.50
2018-02-20T17:55:51.321Z,0.50
2018-02-20T17:58:18.952Z,0.50
2018-02-20T18:00:46.508Z,0.40
2018-02-20T18:03:14.279Z,0.40
2018-02-20T18:05:41.866Z,0.40
2018-02-20T18:08:09.496Z,0.40
2018-02-20T18:10:37.079Z,0.50
2018-02-20T18:13:04.684Z,0.40
2018-02-20T18:15:33.195Z,0.50
2018-02-20T18:18:00.795Z,0.50
2018-02-20T18:20:28.390Z,0.50
2018-02-20T18:25:34.719Z,0.50
2018-02-20T18:28:02.298Z,0.50
2018-02-20T18:30:29.927Z,0.50
2018-02-20T18:32:57.544Z,0.50
2018-02-20T18:35:25.928Z,0.40
2018-02-20T18:37:53.509Z,0.40
2018-02-20T18:40:21.179Z,0.40
2018-02-20T18:42:48.777Z,0.40
2018-02-20T18:45:17.148Z,0.50
2018-02-20T18:47:44.759Z,0.40
2018-02-20T18:50:12.335Z,0.40
2018-02-20T18:52:39.928Z,0.40
2018-02-20T18:55:07.491Z,0.30
2018-02-20T18:57:35.120Z,0.30
2018-02-20T19:00:02.831Z,0.30
2018-02-20T19:02:31.195Z,0.30
2018-02-20T19:04:59.528Z,0.20
2018-02-20T19:07:27.105Z,0.20
2018-02-20T19:09:54.702Z,0.30
2018-02-20T19:12:23.107Z,0.30
2018-02-20T19:14:50.704Z,0.30
2018-02-20T19:17:18.353Z,0.20
2018-02-20T19:19:46.043Z,0.20
2018-02-20T19:22:13.620Z,0.30
2018-02-20T19:27:16.590Z,0.20
2018-02-20T19:29:44.235Z,0.20
2018-02-20T19:32:11.838Z,0.20
2018-02-20T19:34:40.207Z,0.20
2018-02-20T19:37:08.552Z,0.20
2018-02-20T19:39:36.133Z,0.20
2018-02-20T19:42:03.886Z,0.10
2018-02-20T19:44:31.607Z,0.20
2018-02-20T19:46:59.235Z,0.30
2018-02-20T19:49:27.785Z,0.20
2018-02-20T19:51:55.371Z,0.20
2018-02-20T19:54:23.744Z,0.20
2018-02-20T19:56:52.211Z,0.20
2018-02-20T19:59:19.987Z,0.20
2018-02-20T20:01:48.338Z,0.20
2018-02-20T20:04:15.948Z,0.10
2018-02-20T20:06:43.515Z,0.20
2018-02-20T20:09:11.119Z,0.10
2018-02-20T20:11:38.727Z,0.10
2018-02-20T20:14:06.297Z,0.20
2018-02-20T20:16:33.930Z,0.20
2018-02-20T20:19:02.304Z,0.20
2018-02-20T20:21:29.878Z,0.20
2018-02-20T20:23:58.199Z,0.20
2018-02-20T20:26:25.788Z,0.20
2018-02-20T20:28:53.364Z,0.00
2018-02-20T20:31:21.771Z,-0.10
2018-02-20T20:33:49.355Z,-0.10
2018-02-20T20:36:16.932Z,-0.10
2018-02-20T20:38:44.599Z,0.10
2018-02-20T20:41:12.190Z,0.00
2018-02-20T20:43:39.799Z,0.00
2018-02-20T20:46:07.360Z,-0.10
2018-02-20T20:48:35.045Z,0.00
2018-02-20T20:51:03.379Z,-0.10
2018-02-20T20:53:30.988Z,-0.20
2018-02-20T20:55:59.320Z,0.00
2018-02-20T20:58:26.923Z,0.00
2018-02-20T21:00:55.287Z,0.10
2018-02-20T21:03:22.864Z,0.10
2018-02-20T21:05:51.215Z,0.00
2018-02-20T21:08:18.783Z,0.00
2018-02-20T21:10:46.395Z,0.00
2018-02-20T21:13:13.966Z,0.10
2018-02-20T21:15:41.570Z,0.10
2018-02-20T21:18:10.050Z,0.00
2018-02-20T21:20:38.525Z,0.00
2018-02-20T21:23:06.899Z,0.00
2018-02-20T21:25:34.486Z,0.00
2018-02-20T21:28:02.275Z,0.10
2018-02-20T21:30:29.847Z,-0.10
2018-02-20T21:32:57.514Z,-0.10
2018-02-20T21:35:25.099Z,0.00
2018-02-20T21:37:52.719Z,-0.10
2018-02-20T21:40:20.379Z,-0.10
2018-02-20T21:42:47.984Z,-0.10
2018-02-20T21:45:16.343Z,-0.10
2018-02-20T21:47:43.974Z,-0.10
2018-02-20T21:50:11.564Z,-0.10
2018-02-20T21:52:39.176Z,-0.10
2018-02-20T21:55:06.787Z,-0.10
2018-02-20T21:57:34.446Z,-0.20
2018-02-20T22:00:02.068Z,-0.10
2018-02-20T22:02:29.814Z,-0.20
2018-02-20T22:04:57.484Z,-0.10
2018-02-20T22:07:25.100Z,-0.10
2018-02-20T22:09:53.484Z,-0.10
2018-02-20T22:12:21.843Z,-0.10
2018-02-20T22:14:49.439Z,-0.10
2018-02-20T22:17:17.104Z,-0.20
2018-02-20T22:19:44.695Z,-0.20
2018-02-20T22:22:12.403Z,-0.20
2018-02-20T22:24:40.827Z,-0.20
2018-02-20T22:27:08.467Z,-0.20
2018-02-20T22:29:36.073Z,-0.20
2018-02-20T22:32:03.644Z,-0.30
2018-02-20T22:34:31.253Z,-0.30
2018-02-20T22:36:58.867Z,-0.20
2018-02-20T22:39:26.440Z,-0.20
2018-02-20T22:41:54.922Z,-0.30
2018-02-20T22:44:23.329Z,-0.30
2018-02-20T22:46:50.966Z,-0.30
2018-02-20T22:49:18.553Z,-0.20
2018-02-20T22:51:46.127Z,-0.20
2018-02-20T22:54:13.836Z,-0.40
2018-02-20T22:56:42.216Z,-0.30
2018-02-20T22:59:10.726Z,-0.20
2018-02-20T23:01:38.310Z,-0.20
2018-02-20T23:04:05.962Z,-0.20
2018-02-20T23:06:33.547Z,-0.30
2018-02-20T23:09:01.179Z,-0.40
2018-02-20T23:11:40.671Z,-0.30
2018-02-20T23:14:09.060Z,-0.50
2018-02-20T23:16:36.663Z,-0.50
2018-02-20T23:19:04.259Z,-0.40
2018-02-20T23:21:32.647Z,-0.30
2018-02-20T23:24:01.035Z,-0.30
2018-02-20T23:26:28.867Z,-0.30
2018-02-20T23:28:56.523Z,-0.40
2018-02-20T23:31:24.091Z,-0.30
2018-02-20T23:33:51.812Z,-0.40
2018-02-20T23:36:19.413Z,-0.40
2018-02-20T23:38:46.983Z,-0.30
2018-02-20T23:41:15.371Z,-0.40
2018-02-20T23:43:42.932Z,-0.40
2018-02-20T23:46:10.513Z,-0.50
2018-02-20T23:48:38.221Z,-0.70
2018-02-20T23:51:11.447Z,-0.80
2018-02-20T23:53:39.101Z,-0.90
2018-02-20T23:56:06.659Z,-0.70
2018-02-20T23:58:35.011Z,-0.80
